createdAt,value
2019-04-14T00:02:00.987Z,94526.14
2019-04-14T00:04:31.365Z,94524.50
2019-04-14T00:06:59.986Z,94517.19
2019-04-14T00:09:29.447Z,94511.45
2019-04-14T00:11:59.081Z,94517.23
2019-04-14T00:14:27.823Z,94505.56
2019-04-14T00:16:57.474Z,94494.64
2019-04-14T00:19:26.406Z,94492.49
2019-04-14T00:21:55.038Z,94495.69
2019-04-14T00:24:23.527Z,94501.47
2019-04-14T00:26:53.112Z,94494.19
2019-04-14T00:29:21.855Z,94489.03
2019-04-14T00:31:52.152Z,94480.08
2019-04-14T00:34:40.477Z,94482.03
2019-04-14T00:37:12.006Z,94477.94
2019-04-14T00:39:42.464Z,94479.59
2019-04-14T00:42:15.086Z,94476.87
2019-04-14T00:44:45.477Z,94477.62
2019-04-14T00:47:24.730Z,94473.39
2019-04-14T00:49:53.358Z,94475.95
2019-04-14T00:52:23.233Z,94472.33
2019-04-14T00:54:52.175Z,94469.00
2019-04-14T00:57:20.790Z,94465.95
2019-04-14T00:59:49.494Z,94458.33
2019-04-14T01:02:18.924Z,94469.26
2019-04-14T01:04:47.427Z,94470.62
2019-04-14T01:07:17.242Z,94472.88
2019-04-14T01:09:46.477Z,94470.91
2019-04-14T01:12:15.189Z,94470.48
2019-04-14T01:14:43.757Z,94465.00
2019-04-14T01:17:13.404Z,94471.55
2019-04-14T01:19:42.057Z,94466.22
2019-04-14T01:22:11.914Z,94461.55
2019-04-14T01:24:40.664Z,94469.13
2019-04-14T01:27:10.216Z,94468.55
2019-04-14T01:29:38.803Z,94467.03
2019-04-14T01:32:07.368Z,94461.73
2019-04-14T01:34:36.997Z,94464.59
2019-04-14T01:37:05.773Z,94459.14
2019-04-14T01:39:35.047Z,94468.26
2019-04-14T01:42:04.842Z,94469.31
2019-04-14T01:44:33.728Z,94462.93
2019-04-14T01:47:03.102Z,94459.15
2019-04-14T01:49:31.735Z,94461.11
2019-04-14T01:52:14.601Z,94464.61
2019-04-14T01:54:45.351Z,94460.52
2019-04-14T01:57:24.703Z,94459.00
2019-04-14T01:59:53.267Z,94457.93
2019-04-14T02:02:26.993Z,94462.34
2019-04-14T02:04:55.656Z,94459.14
2019-04-14T02:07:25.457Z,94457.93
2019-04-14T02:09:55.372Z,94457.33
2019-04-14T02:12:24.131Z,94459.30
2019-04-14T02:14:54.127Z,94452.76
2019-04-14T02:17:22.693Z,94461.24
2019-04-14T02:19:52.370Z,94459.59
2019-04-14T02:22:22.303Z,94458.98
2019-04-14T02:24:50.968Z,94458.67
2019-04-14T02:27:20.936Z,94454.57
2019-04-14T02:29:49.647Z,94452.00
2019-04-14T02:37:49.085Z,94447.74
2019-04-14T02:40:21.653Z,94442.28
2019-04-14T02:45:19.883Z,94445.48
2019-04-14T02:50:10.926Z,94445.93
2019-04-14T02:52:58.595Z,94435.92
2019-04-14T02:55:17.379Z,94444.56
2019-04-14T02:57:48.828Z,94439.89
2019-04-14T03:02:48.743Z,94446.41
2019-04-14T03:05:21.845Z,94450.78
2019-04-14T03:10:27.044Z,94454.28
2019-04-14T03:12:49.200Z,94454.13
2019-04-14T03:18:18.630Z,94456.12
2019-04-14T03:23:18.918Z,94459.45
2019-04-14T03:25:41.043Z,94455.36
2019-04-14T03:28:38.470Z,94457.02
2019-04-14T03:31:09.802Z,94464.29
2019-04-14T03:33:55.718Z,94466.27
2019-04-14T03:36:16.890Z,94465.66
2019-04-14T03:38:49.826Z,94470.52
2019-04-14T03:41:04.154Z,94462.77
2019-04-14T03:43:30.963Z,94464.30
2019-04-14T03:46:02.653Z,94461.08
2019-04-14T03:51:06.845Z,94462.77
2019-04-14T03:53:41.314Z,94469.44
2019-04-14T03:55:56.301Z,94468.52
2019-04-14T03:58:20.820Z,94469.75
2019-04-14T04:00:49.501Z,94459.43
2019-04-14T04:03:18.059Z,94470.65
2019-04-14T04:05:47.798Z,94477.34
2019-04-14T04:08:16.474Z,94479.92
2019-04-14T04:10:46.988Z,94477.03
2019-04-14T04:13:15.647Z,94481.13
2019-04-14T04:15:45.464Z,94483.41
2019-04-14T04:18:18.365Z,94484.63
2019-04-14T04:21:00.913Z,94482.83
2019-04-14T04:23:40.389Z,94490.84
2019-04-14T04:26:25.833Z,94488.72
2019-04-14T04:29:02.633Z,94490.69
2019-04-14T04:31:48.359Z,94490.98
2019-04-14T04:34:25.088Z,94487.20
2019-04-14T04:37:08.288Z,94482.47
2019-04-14T04:39:39.753Z,94488.05
2019-04-14T04:42:09.190Z,94493.64
2019-04-14T04:44:37.874Z,94494.22
2019-04-14T04:47:07.658Z,94495.91
2019-04-14T04:49:36.409Z,94498.70
2019-04-14T04:52:06.225Z,94508.16
2019-04-14T04:54:34.969Z,94499.22
2019-04-14T04:57:04.577Z,94504.08
2019-04-14T04:59:34.319Z,94498.18
2019-04-14T05:02:02.997Z,94499.05
2019-04-14T05:04:31.558Z,94499.09
2019-04-14T05:07:01.663Z,94498.28
2019-04-14T05:09:39.009Z,94490.37
2019-04-14T05:12:13.241Z,94498.28
2019-04-14T05:14:43.690Z,94495.03
2019-04-14T05:17:15.059Z,94494.38
2019-04-14T05:19:43.728Z,94489.55
2019-04-14T05:22:16.001Z,94499.95
2019-04-14T05:24:42.571Z,94497.84
2019-04-14T05:27:12.361Z,94499.61
2019-04-14T05:29:40.922Z,94497.86
2019-04-14T05:32:09.487Z,94500.98
2019-04-14T05:34:39.005Z,94499.80
2019-04-14T05:37:07.759Z,94492.38
2019-04-14T05:39:37.446Z,94495.53
2019-04-14T05:42:12.403Z,94490.91
2019-04-14T05:44:36.630Z,94498.04
2019-04-14T05:47:06.427Z,94495.09
2019-04-14T05:49:41.631Z,94498.91
2019-04-14T05:52:05.590Z,94488.75
2019-04-14T05:54:34.405Z,94499.69
2019-04-14T05:57:04.319Z,94497.03
2019-04-14T05:59:32.989Z,94496.53
2019-04-14T06:02:02.580Z,94493.12
2019-04-14T06:04:31.298Z,94502.38
2019-04-14T06:06:59.963Z,94506.20
2019-04-14T06:09:29.431Z,94496.91
2019-04-14T06:11:58.034Z,94503.55
2019-04-14T06:14:26.666Z,94500.70
2019-04-14T06:16:55.293Z,94499.28
2019-04-14T06:19:36.168Z,94507.86
2019-04-14T06:21:54.333Z,94505.70
2019-04-14T06:24:22.982Z,94500.80
2019-04-14T06:26:51.710Z,94500.55
2019-04-14T06:29:20.196Z,94506.95
2019-04-14T06:31:58.919Z,94509.86
2019-04-14T06:34:29.189Z,94509.05
2019-04-14T06:37:08.547Z,94508.70
2019-04-14T06:39:50.751Z,94504.05
2019-04-14T06:42:19.548Z,94507.23
2019-04-14T06:44:48.177Z,94505.13
2019-04-14T06:47:16.759Z,94509.91
2019-04-14T06:49:49.052Z,94514.13
2019-04-14T06:52:15.787Z,94516.83
2019-04-14T06:54:44.283Z,94514.69
2019-04-14T06:57:12.887Z,94518.83
2019-04-14T06:59:41.592Z,94519.41
2019-04-14T07:02:10.236Z,94520.00
2019-04-14T07:04:39.041Z,94523.41
2019-04-14T07:07:07.533Z,94530.95
2019-04-14T07:09:36.164Z,94521.52
2019-04-14T07:12:04.949Z,94521.09
2019-04-14T07:14:33.456Z,94537.00
2019-04-14T07:17:02.127Z,94529.92
2019-04-14T07:19:30.800Z,94520.34
2019-04-14T07:21:59.448Z,94534.83
2019-04-14T07:24:27.923Z,94533.82
2019-04-14T07:26:56.711Z,94535.98
2019-04-14T07:29:26.839Z,94527.55
2019-04-14T07:32:12.196Z,94539.00
2019-04-14T07:34:42.462Z,94535.66
2019-04-14T07:37:30.895Z,94524.84
2019-04-14T07:40:03.604Z,94532.35
2019-04-14T07:42:48.862Z,94527.61
2019-04-14T07:45:31.410Z,94526.30
2019-04-14T07:48:01.894Z,94537.47
2019-04-14T07:50:34.761Z,94529.79
2019-04-14T07:53:04.894Z,94537.19
2019-04-14T07:55:50.151Z,94535.55
2019-04-14T07:58:26.198Z,94529.20
2019-04-14T08:00:56.430Z,94521.28
2019-04-14T08:03:26.594Z,94531.79
2019-04-14T08:05:55.223Z,94527.55
2019-04-14T08:08:23.817Z,94524.95
2019-04-14T08:10:52.458Z,94527.87
2019-04-14T08:13:21.097Z,94526.63
2019-04-14T08:15:49.713Z,94521.00
2019-04-14T08:18:18.218Z,94522.22
2019-04-14T08:20:46.964Z,94520.13
2019-04-14T08:23:15.600Z,94515.06
2019-04-14T08:25:44.155Z,94514.59
2019-04-14T08:28:12.695Z,94514.70
2019-04-14T08:30:41.327Z,94511.38
2019-04-14T08:33:09.957Z,94502.28
2019-04-14T08:35:38.485Z,94506.77
2019-04-14T08:38:07.135Z,94509.36
2019-04-14T08:40:35.775Z,94495.77
2019-04-14T08:43:15.543Z,94503.19
2019-04-14T08:45:45.686Z,94502.16
2019-04-14T08:48:21.309Z,94492.44
2019-04-14T08:50:51.584Z,94482.86
2019-04-14T08:53:36.928Z,94488.63
2019-04-14T08:56:19.017Z,94491.94
2019-04-14T08:58:52.110Z,94487.16
2019-04-14T09:01:25.099Z,94501.97
2019-04-14T09:03:55.369Z,94488.09
2019-04-14T09:06:41.090Z,94490.15
2019-04-14T09:09:13.739Z,94486.16
2019-04-14T09:11:59.100Z,94480.23
2019-04-14T09:14:27.731Z,94475.75
2019-04-14T09:16:56.304Z,94489.95
2019-04-14T09:19:25.112Z,94481.96
2019-04-14T09:21:53.982Z,94480.63
2019-04-14T09:24:22.610Z,94478.80
2019-04-14T09:26:51.149Z,94480.59
2019-04-14T09:29:19.797Z,94487.32
2019-04-14T09:31:48.356Z,94488.81
2019-04-14T09:34:16.891Z,94483.91
2019-04-14T09:36:45.531Z,94490.81
2019-04-14T09:39:14.095Z,94483.59
2019-04-14T09:41:42.663Z,94493.29
2019-04-14T09:44:11.253Z,94484.57
2019-04-14T09:46:40.058Z,94484.17
2019-04-14T09:49:08.784Z,94479.53
2019-04-14T09:51:37.276Z,94486.00
2019-04-14T09:54:05.889Z,94481.63
2019-04-14T09:56:34.633Z,94479.21
2019-04-14T09:59:03.274Z,94477.94
2019-04-14T10:01:31.814Z,94478.47
2019-04-14T10:04:00.450Z,94473.45
2019-04-14T10:06:29.077Z,94466.50
2019-04-14T10:08:57.620Z,94480.50
2019-04-14T10:11:26.339Z,94470.23
2019-04-14T10:13:54.967Z,94471.59
2019-04-14T10:16:23.652Z,94456.81
2019-04-14T10:18:52.170Z,94462.50
2019-04-14T10:21:20.825Z,94462.14
2019-04-14T10:23:49.490Z,94470.41
2019-04-14T10:26:17.988Z,94461.83
2019-04-14T10:28:46.480Z,94465.97
2019-04-14T10:31:15.144Z,94469.58
2019-04-14T10:33:43.779Z,94463.08
2019-04-14T10:36:12.284Z,94459.41
2019-04-14T10:38:40.880Z,94455.19
2019-04-14T10:41:09.506Z,94465.67
2019-04-14T10:43:38.135Z,94462.89
2019-04-14T10:46:06.850Z,94462.89
2019-04-14T10:48:35.478Z,94473.84
2019-04-14T10:51:04.255Z,94460.33
2019-04-14T10:53:33.116Z,94458.75
2019-04-14T10:56:01.769Z,94453.50
2019-04-14T10:58:30.428Z,94459.85
2019-04-14T11:00:59.200Z,94460.75
2019-04-14T11:03:27.817Z,94454.67
2019-04-14T11:06:10.134Z,94463.45
2019-04-14T11:08:38.766Z,94461.31
2019-04-14T11:11:07.369Z,94463.34
2019-04-14T11:13:36.123Z,94475.16
2019-04-14T11:16:04.901Z,94454.20
2019-04-14T11:18:33.639Z,94465.81
2019-04-14T11:21:02.252Z,94466.55
2019-04-14T11:23:30.738Z,94463.25
2019-04-14T11:25:59.376Z,94452.97
2019-04-14T11:28:28.014Z,94460.61
2019-04-14T11:30:56.646Z,94476.21
2019-04-14T11:33:35.981Z,94467.77
2019-04-14T11:36:15.517Z,94468.55
2019-04-14T11:38:45.829Z,94487.00
2019-04-14T11:41:15.940Z,94474.83
2019-04-14T11:43:44.545Z,94477.89
2019-04-14T11:46:13.293Z,94456.17
2019-04-14T11:48:41.928Z,94461.59
2019-04-14T11:51:10.489Z,94460.44
2019-04-14T11:53:39.027Z,94438.77
2019-04-14T11:56:07.724Z,94458.77
2019-04-14T11:58:36.358Z,94459.80
2019-04-14T12:01:09.479Z,94458.84
2019-04-14T12:03:58.010Z,94451.88
2019-04-14T12:06:31.093Z,94449.28
2019-04-14T12:09:01.366Z,94459.41
2019-04-14T12:11:30.052Z,94454.53
2019-04-14T12:13:58.915Z,94453.88
2019-04-14T12:16:27.491Z,94454.77
2019-04-14T12:18:56.094Z,94456.59
2019-04-14T12:21:24.758Z,94447.66
2019-04-14T12:23:53.385Z,94448.94
2019-04-14T12:26:21.882Z,94455.59
2019-04-14T12:28:51.575Z,94440.72
2019-04-14T12:31:20.201Z,94445.46
2019-04-14T12:33:48.807Z,94443.44
2019-04-14T12:36:17.550Z,94436.91
2019-04-14T12:38:46.055Z,94435.13
2019-04-14T12:41:17.403Z,94437.03
2019-04-14T12:43:57.484Z,94437.20
2019-04-14T12:46:27.685Z,94435.89
2019-04-14T12:49:00.893Z,94438.58
2019-04-14T12:51:31.127Z,94433.47
2019-04-14T12:53:59.761Z,94426.64
2019-04-14T12:56:29.864Z,94425.92
2019-04-14T12:59:00.371Z,94423.30
2019-04-14T13:01:30.717Z,94424.28
2019-04-14T13:03:59.498Z,94417.17
2019-04-14T13:06:28.293Z,94434.48
2019-04-14T13:08:56.926Z,94411.28
2019-04-14T13:11:25.495Z,94412.43
2019-04-14T13:13:54.101Z,94419.56
2019-04-14T13:16:22.741Z,94418.14
2019-04-14T13:18:51.372Z,94413.54
2019-04-14T13:21:20.036Z,94414.80
2019-04-14T13:23:48.540Z,94411.85
2019-04-14T13:26:17.171Z,94414.42
2019-04-14T13:28:45.763Z,94406.39
2019-04-14T13:31:14.397Z,94403.25
2019-04-14T13:33:43.032Z,94407.26
2019-04-14T13:36:11.685Z,94407.45
2019-04-14T13:38:40.277Z,94413.81
2019-04-14T13:41:08.911Z,94409.34
2019-04-14T13:43:37.857Z,94415.92
2019-04-14T13:46:06.422Z,94417.77
2019-04-14T13:48:34.982Z,94420.16
2019-04-14T13:51:03.661Z,94417.66
2019-04-14T13:53:32.294Z,94428.84
2019-04-14T13:56:00.934Z,94421.37
2019-04-14T13:58:29.533Z,94436.66
2019-04-14T14:00:58.174Z,94437.84
2019-04-14T14:03:26.883Z,94427.25
2019-04-14T14:05:55.650Z,94423.63
2019-04-14T14:08:24.278Z,94423.55
2019-04-14T14:10:54.415Z,94425.47
2019-04-14T14:13:33.421Z,94427.34
2019-04-14T14:16:06.490Z,94434.61
2019-04-14T14:18:40.369Z,94424.99
2019-04-14T14:21:10.576Z,94445.70
2019-04-14T14:23:56.901Z,94446.78
2019-04-14T14:26:30.277Z,94438.36
2019-04-14T14:28:59.755Z,94436.43
2019-04-14T14:31:28.537Z,94446.64
2019-04-14T14:33:57.031Z,94443.55
2019-04-14T14:36:25.669Z,94446.23
2019-04-14T14:38:54.343Z,94435.39
2019-04-14T14:41:22.973Z,94432.44
2019-04-14T14:43:51.469Z,94441.64
2019-04-14T14:46:24.890Z,94457.77
2019-04-14T14:49:06.671Z,94439.30
2019-04-14T14:51:36.986Z,94443.28
2019-04-14T14:54:05.618Z,94452.59
2019-04-14T14:56:34.105Z,94457.36
2019-04-14T14:59:02.702Z,94450.44
2019-04-14T15:01:31.334Z,94455.28
2019-04-14T15:03:59.968Z,94456.34
2019-04-14T15:06:28.498Z,94459.80
2019-04-14T15:08:57.059Z,94458.27
2019-04-14T15:11:25.694Z,94466.29
2019-04-14T15:13:54.360Z,94469.09
2019-04-14T15:16:22.930Z,94469.93
2019-04-14T15:18:51.497Z,94476.67
2019-04-14T15:21:20.399Z,94476.59
2019-04-14T15:23:49.127Z,94465.92
2019-04-14T15:26:17.615Z,94472.48
2019-04-14T15:28:46.326Z,94469.28
2019-04-14T15:31:14.952Z,94481.19
2019-04-14T15:33:43.447Z,94479.02
2019-04-14T15:36:12.100Z,94476.13
2019-04-14T15:38:40.833Z,94491.24
2019-04-14T15:41:09.321Z,94481.87
2019-04-14T15:43:37.915Z,94475.77
2019-04-14T15:46:06.587Z,94470.41
2019-04-14T15:48:37.526Z,94466.84
2019-04-14T15:51:06.127Z,94467.14
2019-04-14T15:53:38.086Z,94481.66
2019-04-14T15:56:05.052Z,94487.63
2019-04-14T15:58:38.219Z,94475.68
2019-04-14T16:01:14.756Z,94475.95
2019-04-14T16:03:45.132Z,94486.72
2019-04-14T16:06:18.131Z,94496.39
2019-04-14T16:08:54.360Z,94491.20
2019-04-14T16:11:30.443Z,94501.95
2019-04-14T16:14:09.664Z,94496.28
2019-04-14T16:16:57.932Z,94484.89
2019-04-14T16:19:30.977Z,94480.78
2019-04-14T16:21:59.605Z,94494.19
2019-04-14T16:24:28.240Z,94503.12
2019-04-14T16:26:58.479Z,94506.35
2019-04-14T16:29:31.740Z,94498.73
2019-04-14T16:32:07.950Z,94506.56
2019-04-14T16:34:48.127Z,94505.10
2019-04-14T16:37:16.719Z,94502.21
2019-04-14T16:39:45.354Z,94516.16
2019-04-14T16:42:14.054Z,94509.03
2019-04-14T16:44:42.954Z,94516.38
2019-04-14T16:47:11.448Z,94526.50
2019-04-14T16:49:39.933Z,94521.76
2019-04-14T16:52:13.211Z,94536.83
2019-04-14T16:54:46.212Z,94525.03
2019-04-14T16:57:32.350Z,94526.23
2019-04-14T17:00:00.912Z,94535.23
2019-04-14T17:02:29.628Z,94531.30
2019-04-14T17:04:58.290Z,94539.13
2019-04-14T17:07:26.851Z,94546.26
2019-04-14T17:09:55.455Z,94536.80
2019-04-14T17:12:24.100Z,94539.23
2019-04-14T17:14:57.402Z,94536.80
2019-04-14T17:17:30.606Z,94540.30
2019-04-14T17:20:03.461Z,94544.28
2019-04-14T17:22:45.970Z,94552.85
2019-04-14T17:25:25.488Z,94555.01
2019-04-14T17:27:55.664Z,94553.94
2019-04-14T17:30:31.932Z,94554.86
2019-04-14T17:33:04.832Z,94557.92
2019-04-14T17:35:44.386Z,94564.42
2019-04-14T17:38:20.580Z,94568.36
2019-04-14T17:40:53.816Z,94570.95
2019-04-14T17:43:26.826Z,94571.42
2019-04-14T17:45:59.430Z,94570.94
2019-04-14T17:48:29.699Z,94577.76
2019-04-14T17:51:09.249Z,94559.81
2019-04-14T17:53:42.097Z,94574.26
2019-04-14T17:56:12.218Z,94572.31
2019-04-14T17:58:48.398Z,94581.02
2019-04-14T18:01:33.948Z,94579.67
2019-04-14T18:04:16.276Z,94585.31
2019-04-14T18:06:54.952Z,94593.52
2019-04-14T18:09:29.046Z,94588.20
2019-04-14T18:12:08.612Z,94583.61
2019-04-14T18:14:47.952Z,94592.89
2019-04-14T18:17:24.219Z,94597.77
2019-04-14T18:20:00.148Z,94596.23
2019-04-14T18:22:28.791Z,94601.23
2019-04-14T18:24:57.429Z,94598.80
2019-04-14T18:27:26.139Z,94594.86
2019-04-14T18:29:59.422Z,94602.42
2019-04-14T18:32:41.735Z,94599.73
2019-04-14T18:35:18.032Z,94599.22
2019-04-14T18:37:57.184Z,94607.13
2019-04-14T18:40:36.434Z,94610.02
2019-04-14T18:43:09.660Z,94607.44
2019-04-14T18:45:42.665Z,94608.92
2019-04-14T18:48:11.923Z,94611.08
2019-04-14T18:50:58.380Z,94613.98
2019-04-14T18:53:31.643Z,94617.03
2019-04-14T18:56:01.773Z,94605.48
2019-04-14T18:58:40.782Z,94622.94
2019-04-14T19:01:23.246Z,94622.94
2019-04-14T19:03:51.909Z,94623.26
2019-04-14T19:06:20.470Z,94620.70
2019-04-14T19:08:51.019Z,94623.28
2019-04-14T19:11:21.329Z,94623.16
2019-04-14T19:14:00.548Z,94630.94
2019-04-14T19:16:39.624Z,94632.11
2019-04-14T19:19:09.058Z,94626.52
2019-04-14T19:21:37.696Z,94635.21
2019-04-14T19:24:06.553Z,94633.72
2019-04-14T19:26:35.186Z,94636.61
2019-04-14T19:29:03.739Z,94636.14
2019-04-14T19:31:32.358Z,94631.59
2019-04-14T19:34:00.928Z,94638.56
2019-04-14T19:36:29.749Z,94641.00
2019-04-14T19:38:58.386Z,94644.03
2019-04-14T19:41:27.161Z,94633.84
2019-04-14T19:43:55.820Z,94639.03
2019-04-14T19:46:24.446Z,94648.16
2019-04-14T19:48:53.077Z,94637.19
2019-04-14T19:51:21.887Z,94643.61
2019-04-14T19:53:50.376Z,94645.71
2019-04-14T19:56:19.013Z,94644.81
2019-04-14T19:58:47.917Z,94640.56
2019-04-14T20:01:16.365Z,94640.39
2019-04-14T20:03:44.955Z,94646.03
2019-04-14T20:06:13.802Z,94642.53
2019-04-14T20:08:42.457Z,94638.43
2019-04-14T20:11:11.009Z,94646.03
2019-04-14T20:13:47.233Z,94655.60
2019-04-14T20:16:29.528Z,94657.09
2019-04-14T20:19:10.735Z,94652.70
2019-04-14T20:21:59.442Z,94652.70
2019-04-14T20:24:48.136Z,94656.20
2019-04-14T20:27:27.590Z,94658.66
2019-04-14T20:30:09.789Z,94661.38
2019-04-14T20:32:42.745Z,94657.26
2019-04-14T20:35:11.507Z,94660.02
2019-04-14T20:37:40.036Z,94658.20
2019-04-14T20:40:09.040Z,94660.46
2019-04-14T20:42:37.770Z,94661.39
2019-04-14T20:45:09.739Z,94652.41
2019-04-14T20:47:38.373Z,94663.05
2019-04-14T20:50:10.382Z,94662.44
2019-04-14T20:52:39.055Z,94660.47
2019-04-14T20:55:08.247Z,94662.59
2019-04-14T20:57:36.952Z,94665.31
2019-04-14T21:00:06.760Z,94665.78
2019-04-14T21:02:39.804Z,94665.78
2019-04-14T21:05:15.854Z,94670.20
2019-04-14T21:07:48.567Z,94668.20
2019-04-14T21:10:31.286Z,94672.94
2019-04-14T21:13:03.908Z,94668.66
2019-04-14T21:15:34.164Z,94667.30
2019-04-14T21:18:13.391Z,94667.30
2019-04-14T21:20:46.514Z,94668.06
2019-04-14T21:23:33.156Z,94663.20
2019-04-14T21:26:12.016Z,94665.02
2019-04-14T21:28:58.446Z,94668.96
2019-04-14T21:31:28.718Z,94668.23
2019-04-14T21:34:07.949Z,94668.06
2019-04-14T21:36:38.203Z,94669.88
2019-04-14T21:39:09.192Z,94670.48
2019-04-14T21:41:37.906Z,94671.25
2019-04-14T21:44:06.532Z,94673.38
2019-04-14T21:46:35.189Z,94672.14
2019-04-14T21:49:03.834Z,94673.20
2019-04-14T21:51:48.986Z,94667.13
2019-04-14T21:54:18.427Z,94673.48
2019-04-14T21:56:48.701Z,94672.91
2019-04-14T21:59:18.838Z,94673.52
2019-04-14T22:01:58.413Z,94670.94
2019-04-14T22:04:37.581Z,94680.06
2019-04-14T22:07:07.963Z,94674.44
2019-04-14T22:09:38.131Z,94683.42
2019-04-14T22:12:07.690Z,94678.19
2019-04-14T22:14:36.406Z,94687.15
2019-04-14T22:17:05.300Z,94686.08
2019-04-14T22:19:33.860Z,94684.27
2019-04-14T22:22:02.495Z,94678.21
2019-04-14T22:24:31.116Z,94678.66
2019-04-14T22:26:59.749Z,94679.27
2019-04-14T22:29:28.344Z,94663.48
2019-04-14T22:31:56.973Z,94677.91
2019-04-14T22:34:25.610Z,94673.20
2019-04-14T22:36:54.279Z,94670.02
2019-04-14T22:39:22.887Z,94666.95
2019-04-14T22:41:51.474Z,94674.57
2019-04-14T22:44:20.199Z,94666.06
2019-04-14T22:46:48.833Z,94664.38
2019-04-14T22:49:17.632Z,94665.60
2019-04-14T22:51:46.461Z,94668.05
2019-04-14T22:54:15.089Z,94656.64
2019-04-14T22:56:43.743Z,94662.56
2019-04-14T22:59:12.345Z,94653.91
2019-04-14T23:01:42.606Z,94655.12
2019-04-14T23:04:15.378Z,94656.03
2019-04-14T23:07:01.389Z,94656.47
2019-04-14T23:09:43.920Z,94658.59
2019-04-14T23:12:17.233Z,94661.02
2019-04-14T23:14:50.576Z,94660.27
2019-04-14T23:17:20.847Z,94659.67
2019-04-14T23:19:54.277Z,94655.27
2019-04-14T23:22:39.634Z,94656.33
2019-04-14T23:25:08.507Z,94656.94
2019-04-14T23:27:36.996Z,94664.98
2019-04-14T23:30:06.421Z,94660.56
2019-04-14T23:32:35.093Z,94658.30
2019-04-14T23:35:05.124Z,94663.77
2019-04-14T23:37:33.982Z,94660.13
2019-04-14T23:40:02.583Z,94666.49
2019-04-14T23:42:31.151Z,94664.24
2019-04-14T23:44:59.769Z,94663.94
2019-04-14T23:47:28.439Z,94663.63
2019-04-14T23:49:56.925Z,94655.28
2019-04-14T23:52:25.485Z,94655.41
2019-04-14T23:54:54.186Z,94654.70
2019-04-14T23:57:22.807Z,94658.17
2019-04-14T23:59:51.295Z,94655.42
